首页
METAR-TAF:

METAR-TAF

机场 :

圣佩德罗苏拉, 洪都拉斯

纬度: 15-27N, 经度: 087-56W, 海拔: 31米

当前天气观测

该预报发布于8小时和43分钟前的02:00 UTC
风速6节,风向北转东北
温度 27°C
湿度 79%
气压 1011 hPa
能见度10公里或以上
少量云层高于2800英尺

METAR: MHLM 020200Z 02006KT 9999 FEW028 27/23 Q1011 A2986

时间: 04:43 (10:43 UTC)

预报

该预报发布于6小时和18分钟前的04:25 UTC
预报有效从02日的 06点(UTC)到 03日的 06点(UTC)
风速6节,风向
能见度10公里或以上
散云层高于2500英尺
成为
从 02日的 06点(UTC)到 02日的 08点(UTC)
风速4节,风向
成为
从 02日的 10点(UTC)到 02日的 12点(UTC)
多云层高于2500英尺
成为
从 02日的 14点(UTC)到 02日的 16点(UTC)
风速节,风向
少量云层高于2800英尺
成为
从 02日的 18点(UTC)到 02日的 20点(UTC)
风速8节,风向北转东北

TAF: MHLM 020425Z 0206/0306 08006KT 9999 SCT025 TX35/0221Z TN22/0212Z BECMG 0206/0208 18004KT BECMG 0210/0212 BKN025 BECMG 0214/0216 00000KT FEW028 BECMG 0218/0220 03008KT

超过4000个机场的气象观测和天气预报(METAR&TAF报告)。

可查询的气象台以黄色和红色小点在地图上表示。

将鼠标移到小点上方,可查看气象台名称。

然后点击查看天气观测和预报。

如需切换地图:点击带黑十字的绿色按钮放大地图;点击带横线的绿色按钮缩小地图;或者点击绿色箭头查看邻近地区的地图。


METAR-TAF: